Ellsworth AFB, South Dakota
Current Conditions -  °F | °C
As of 11:58 AM on Friday 31 Oct 2014 (Local Time) from KRCA Reporting Station
Clear Clear  
Wind Chill: 27°   Ceiling: Unl
Heat Index: 39°   Visibility: 10mi
Dew Point: 31°   Wind: 31mph
Humidity: 73%   Direction: 170°S
Pressure: 30.24"   Gusts: 39mph
Location:  44.14°N, 103.07°W
Report Text: KRCA 311758Z AUTO 17027G34KT 10SM CLR 04/M01 A3024 RMK AO2 PK WND 17034/55 CIG 011 RWY31 SLP269 T00391006 10039 21011 57029 $
Loading
Personal Weather Stations






























Interactive Weather Map
Tropical Storm Tracking
New forecast layout! Learn more

10-Day Weather Forecast

Advertisements
Track Severe Weather on mobile